4XPDC LLER-LLHA
Flight info
| Callsign | 4XPDC |
|---|---|
| Flight time | N/A |
| Altitude | 25000 |
| Route | NURIT J10 TOMAL/N0314F240 J10 NAT/N0276F060 J14 FOLKU/N0269F040 J14 ROP |
| Aircraft | B350/L-SBGRW/S |
Departure
| Time | 2026-05-01 10:54 |
|---|---|
| Airport | Ramon International Airport (LLER) |
Arrival
| Time | N/A |
|---|---|
| Airport | Uri Michaeli Haifa International Airport (LLHA) |
| Time | Latitude | Longitude | Altitude | Speed | Heading |
|---|---|---|---|---|---|
| 2026-05-01 10:45 | 29.72106 | 35.00727 | 297 ft | 0 kts | 193° |
| 2026-05-01 10:51 | 29.72102 | 35.00729 | 298 ft | 2 kts | 110° |
| 2026-05-01 10:51 | 29.72106 | 35.00740 | 297 ft | 0 kts | 360° |
| 2026-05-01 10:52 | 29.72136 | 35.00756 | 294 ft | 10 kts | 61° |
| 2026-05-01 10:52 | 29.72146 | 35.00803 | 294 ft | 10 kts | 47° |
| 2026-05-01 10:52 | 29.72248 | 35.00841 | 295 ft | 16 kts | 60° |
| 2026-05-01 10:52 | 29.72228 | 35.00968 | 294 ft | 19 kts | 103° |
| 2026-05-01 10:53 | 29.72230 | 35.01102 | 294 ft | 17 kts | 99° |
| 2026-05-01 10:53 | 29.72217 | 35.01155 | 296 ft | 0 kts | 105° |
| 2026-05-01 10:53 | 29.72207 | 35.01263 | 294 ft | 21 kts | 55° |
| 2026-05-01 10:53 | 29.72447 | 35.01337 | 294 ft | 71 kts | 14° |
| 2026-05-01 10:54 | 29.73146 | 35.01529 | 315 ft | 127 kts | 13° |
| 2026-05-01 10:54 | 29.74120 | 35.01788 | 463 ft | 157 kts | 8° |
| 2026-05-01 10:54 | 29.75222 | 35.01854 | 916 ft | 159 kts | 4° |
| 2026-05-01 10:54 | 29.76350 | 35.01909 | 1452 ft | 159 kts | 1° |
| 2026-05-01 10:55 | 29.77458 | 35.02006 | 2026 ft | 164 kts | 7° |
| 2026-05-01 10:55 | 29.78610 | 35.02210 | 2523 ft | 167 kts | 9° |
| 2026-05-01 10:55 | 29.79748 | 35.02396 | 3088 ft | 164 kts | 7° |
| 2026-05-01 10:55 | 29.80881 | 35.02559 | 3703 ft | 164 kts | 6° |
| 2026-05-01 10:56 | 29.82026 | 35.02729 | 4146 ft | 166 kts | 7° |
| 2026-05-01 10:56 | 29.83173 | 35.02912 | 4659 ft | 167 kts | 7° |
| 2026-05-01 10:56 | 29.84341 | 35.03091 | 5091 ft | 173 kts | 7° |
| 2026-05-01 10:56 | 29.85552 | 35.03273 | 5488 ft | 179 kts | 8° |
| 2026-05-01 10:57 | 29.86806 | 35.03469 | 5889 ft | 185 kts | 8° |
| 2026-05-01 10:57 | 29.88102 | 35.03670 | 6263 ft | 190 kts | 9° |
| 2026-05-01 10:57 | 29.89424 | 35.03874 | 6714 ft | 193 kts | 9° |
| 2026-05-01 10:57 | 29.90761 | 35.04087 | 7134 ft | 195 kts | 8° |
| 2026-05-01 10:58 | 29.91666 | 35.04226 | 7480 ft | 194 kts | 8° |
| 2026-05-01 10:58 | 29.93024 | 35.04430 | 7912 ft | 198 kts | 7° |
| 2026-05-01 10:58 | 29.94391 | 35.04640 | 8356 ft | 199 kts | 7° |
| 2026-05-01 10:58 | 29.95764 | 35.04856 | 8857 ft | 200 kts | 7° |
| 2026-05-01 10:59 | 29.97149 | 35.05067 | 9345 ft | 201 kts | 7° |
| 2026-05-01 10:59 | 29.98535 | 35.05281 | 9790 ft | 202 kts | 7° |
| 2026-05-01 10:59 | 29.99942 | 35.05502 | 10219 ft | 204 kts | 7° |
| 2026-05-01 10:59 | 30.01346 | 35.05718 | 10646 ft | 204 kts | 6° |
| 2026-05-01 11:00 | 30.02747 | 35.05933 | 11106 ft | 202 kts | 6° |
| 2026-05-01 11:00 | 30.04133 | 35.06149 | 11558 ft | 202 kts | 5° |
| 2026-05-01 11:00 | 30.05530 | 35.06358 | 11988 ft | 202 kts | 5° |
| 2026-05-01 11:00 | 30.06921 | 35.06555 | 12460 ft | 202 kts | 7° |
| 2026-05-01 11:01 | 30.08309 | 35.06867 | 12894 ft | 203 kts | 9° |
| 2026-05-01 11:01 | 30.09692 | 35.07163 | 13317 ft | 203 kts | 6° |
| 2026-05-01 11:01 | 30.11084 | 35.07429 | 13765 ft | 202 kts | 7° |
| 2026-05-01 11:01 | 30.12473 | 35.07726 | 14159 ft | 203 kts | 7° |
| 2026-05-01 11:02 | 30.13870 | 35.08020 | 14552 ft | 204 kts | 7° |
| 2026-05-01 11:02 | 30.15275 | 35.08306 | 14929 ft | 205 kts | 7° |
| 2026-05-01 11:02 | 30.16681 | 35.08597 | 15322 ft | 206 kts | 7° |
| 2026-05-01 11:02 | 30.18095 | 35.08891 | 15705 ft | 207 kts | 7° |
| 2026-05-01 11:03 | 30.19517 | 35.09186 | 16076 ft | 208 kts | 7° |
| 2026-05-01 11:03 | 30.20947 | 35.09487 | 16457 ft | 209 kts | 8° |
| 2026-05-01 11:03 | 30.22382 | 35.09808 | 16848 ft | 210 kts | 6° |
| 2026-05-01 11:03 | 30.23828 | 35.10055 | 17236 ft | 210 kts | 5° |
| 2026-05-01 11:04 | 30.25280 | 35.10323 | 17614 ft | 212 kts | 6° |
| 2026-05-01 11:04 | 30.26743 | 35.10609 | 17989 ft | 213 kts | 5° |
| 2026-05-01 11:04 | 30.28211 | 35.10878 | 18356 ft | 214 kts | 5° |
| 2026-05-01 11:04 | 30.29683 | 35.11151 | 18690 ft | 215 kts | 5° |
| 2026-05-01 11:05 | 30.31148 | 35.11428 | 18997 ft | 217 kts | 4° |
| 2026-05-01 11:05 | 30.32643 | 35.11701 | 19331 ft | 218 kts | 5° |
| 2026-05-01 11:05 | 30.34145 | 35.11998 | 19606 ft | 223 kts | 5° |
| 2026-05-01 11:05 | 30.35741 | 35.12306 | 19734 ft | 234 kts | 5° |
| 2026-05-01 11:06 | 30.37375 | 35.12620 | 19756 ft | 239 kts | 6° |
| 2026-05-01 11:06 | 30.39005 | 35.12946 | 19308 ft | 238 kts | 5° |
| 2026-05-01 11:06 | 30.40635 | 35.13243 | 18888 ft | 236 kts | 5° |
| 2026-05-01 11:07 | 30.43861 | 35.13871 | 17983 ft | 234 kts | 6° |
| 2026-05-01 11:07 | 30.45460 | 35.14177 | 17508 ft | 232 kts | 6° |
| 2026-05-01 11:07 | 30.47049 | 35.14483 | 17041 ft | 230 kts | 7° |
| 2026-05-01 11:07 | 30.48628 | 35.14790 | 16566 ft | 229 kts | 7° |
| 2026-05-01 11:08 | 30.50200 | 35.15094 | 16107 ft | 228 kts | 7° |
| 2026-05-01 11:08 | 30.51757 | 35.15394 | 15665 ft | 227 kts | 7° |
| 2026-05-01 11:08 | 30.54852 | 35.16050 | 14840 ft | 225 kts | 12° |
| 2026-05-01 11:09 | 30.56362 | 35.16525 | 14447 ft | 225 kts | 14° |
| 2026-05-01 11:09 | 30.57840 | 35.17109 | 14040 ft | 225 kts | 21° |
| 2026-05-01 11:09 | 30.59264 | 35.17861 | 13613 ft | 224 kts | 22° |
| 2026-05-01 11:10 | 30.62144 | 35.19254 | 12717 ft | 223 kts | 22° |
| 2026-05-01 11:10 | 30.63573 | 35.19963 | 12269 ft | 223 kts | 22° |
| 2026-05-01 11:10 | 30.65002 | 35.20667 | 11865 ft | 222 kts | 22° |
| 2026-05-01 11:10 | 30.66426 | 35.21363 | 11449 ft | 222 kts | 22° |
| 2026-05-01 11:11 | 30.67848 | 35.22062 | 11050 ft | 222 kts | 22° |
| 2026-05-01 11:11 | 30.69267 | 35.22759 | 10650 ft | 221 kts | 23° |
| 2026-05-01 11:11 | 30.70683 | 35.23453 | 10264 ft | 221 kts | 22° |
| 2026-05-01 11:11 | 30.72098 | 35.24149 | 9849 ft | 221 kts | 23° |
| 2026-05-01 11:12 | 30.73506 | 35.24846 | 9440 ft | 219 kts | 23° |
| 2026-05-01 11:12 | 30.74907 | 35.25530 | 9064 ft | 217 kts | 23° |
| 2026-05-01 11:12 | 30.76290 | 35.26211 | 8650 ft | 215 kts | 23° |
| 2026-05-01 11:12 | 30.77652 | 35.26884 | 8291 ft | 213 kts | 24° |
| 2026-05-01 11:13 | 30.79015 | 35.27555 | 7936 ft | 210 kts | 24° |
| 2026-05-01 11:13 | 30.80358 | 35.28216 | 7552 ft | 209 kts | 24° |
| 2026-05-01 11:13 | 30.81694 | 35.28871 | 7189 ft | 207 kts | 24° |
| 2026-05-01 11:13 | 30.83021 | 35.29530 | 6822 ft | 206 kts | 24° |
| 2026-05-01 11:14 | 30.84346 | 35.30183 | 6478 ft | 204 kts | 24° |
| 2026-05-01 11:14 | 30.85634 | 35.30812 | 6106 ft | 202 kts | 24° |
| 2026-05-01 11:14 | 30.86920 | 35.31452 | 5753 ft | 199 kts | 24° |
| 2026-05-01 11:14 | 30.88189 | 35.32081 | 5362 ft | 197 kts | 24° |
| 2026-05-01 11:15 | 30.89487 | 35.32713 | 5147 ft | 216 kts | 22° |
| 2026-05-01 11:15 | 30.90932 | 35.33429 | 5066 ft | 234 kts | 24° |
| 2026-05-01 11:15 | 30.92468 | 35.34185 | 5004 ft | 242 kts | 21° |
| 2026-05-01 11:15 | 30.94064 | 35.34762 | 4982 ft | 243 kts | 14° |
| 2026-05-01 11:16 | 30.95716 | 35.35219 | 4973 ft | 250 kts | 13° |
| 2026-05-01 11:16 | 30.97453 | 35.35495 | 4963 ft | 254 kts | 4° |
| 2026-05-01 11:16 | 30.99226 | 35.35611 | 4963 ft | 257 kts | 5° |
| 2026-05-01 11:16 | 31.01013 | 35.35826 | 4962 ft | 259 kts | 6° |
| 2026-05-01 11:17 | 31.02820 | 35.36002 | 4966 ft | 261 kts | 5° |
| 2026-05-01 11:17 | 31.04634 | 35.36189 | 4958 ft | 262 kts | 6° |
| 2026-05-01 11:17 | 31.06453 | 35.36378 | 4944 ft | 262 kts | 5° |
| 2026-05-01 11:17 | 31.08272 | 35.36564 | 4934 ft | 262 kts | 5° |
| 2026-05-01 11:18 | 31.10083 | 35.36753 | 4947 ft | 261 kts | 5° |
| 2026-05-01 11:18 | 31.11887 | 35.36937 | 4982 ft | 259 kts | 5° |
| 2026-05-01 11:18 | 31.13684 | 35.37119 | 5001 ft | 260 kts | 5° |
| 2026-05-01 11:18 | 31.15491 | 35.37305 | 4999 ft | 261 kts | 5° |
| 2026-05-01 11:19 | 31.17299 | 35.37499 | 4999 ft | 261 kts | 5° |
| 2026-05-01 11:19 | 31.19116 | 35.37685 | 5003 ft | 262 kts | 5° |
| 2026-05-01 11:19 | 31.20930 | 35.37881 | 5004 ft | 262 kts | 5° |
| 2026-05-01 11:19 | 31.22747 | 35.38069 | 5003 ft | 262 kts | 5° |
| 2026-05-01 11:20 | 31.24566 | 35.38263 | 5023 ft | 263 kts | 5° |
| 2026-05-01 11:20 | 31.26431 | 35.38453 | 5007 ft | 264 kts | 5° |
| 2026-05-01 11:20 | 31.28228 | 35.38648 | 5012 ft | 264 kts | 5° |
| 2026-05-01 11:20 | 31.30062 | 35.38840 | 4998 ft | 264 kts | 5° |
| 2026-05-01 11:21 | 31.31893 | 35.39040 | 5009 ft | 264 kts | 5° |
| 2026-05-01 11:21 | 31.33719 | 35.39258 | 4998 ft | 264 kts | 8° |
| 2026-05-01 11:21 | 31.35511 | 35.39702 | 4998 ft | 263 kts | 12° |
| 2026-05-01 11:21 | 31.37313 | 35.40086 | 5013 ft | 263 kts | 8° |
| 2026-05-01 11:22 | 31.39121 | 35.40490 | 5026 ft | 265 kts | 11° |
| 2026-05-01 11:22 | 31.40957 | 35.40905 | 4993 ft | 265 kts | 9° |
| 2026-05-01 11:22 | 31.42773 | 35.41295 | 4995 ft | 264 kts | 11° |
| 2026-05-01 11:22 | 31.44593 | 35.41713 | 4998 ft | 263 kts | 10° |
| 2026-05-01 11:23 | 31.46422 | 35.42112 | 5005 ft | 263 kts | 10° |
| 2026-05-01 11:23 | 31.48220 | 35.42514 | 5005 ft | 263 kts | 10° |
| 2026-05-01 11:23 | 31.50013 | 35.42916 | 5005 ft | 262 kts | 10° |
| 2026-05-01 11:23 | 31.51803 | 35.43311 | 5011 ft | 262 kts | 10° |
| 2026-05-01 11:24 | 31.53593 | 35.43713 | 5008 ft | 262 kts | 10° |
| 2026-05-01 11:24 | 31.55384 | 35.44112 | 5009 ft | 262 kts | 9° |
| 2026-05-01 11:24 | 31.58968 | 35.44913 | 5011 ft | 262 kts | 9° |
| 2026-05-01 11:25 | 31.60761 | 35.45267 | 5006 ft | 261 kts | 9° |
| 2026-05-01 11:25 | 31.64325 | 35.46135 | 5006 ft | 261 kts | 9° |
| 2026-05-01 11:25 | 31.66109 | 35.46553 | 5011 ft | 261 kts | 11° |
| 2026-05-01 11:26 | 31.67885 | 35.46986 | 5010 ft | 261 kts | 9° |
| 2026-05-01 11:26 | 31.71445 | 35.47837 | 5012 ft | 261 kts | 8° |
| 2026-05-01 11:26 | 31.73224 | 35.47660 | 5017 ft | 258 kts | 343° |
| 2026-05-01 11:27 | 31.74915 | 35.46960 | 5007 ft | 257 kts | 335° |
| 2026-05-01 11:27 | 31.76504 | 35.46072 | 5226 ft | 248 kts | 330° |
| 2026-05-01 11:27 | 31.78003 | 35.45115 | 5477 ft | 242 kts | 328° |
| 2026-05-01 11:27 | 31.79377 | 35.44015 | 5730 ft | 237 kts | 320° |
| 2026-05-01 11:28 | 31.80231 | 35.43219 | 5835 ft | 237 kts | 320° |
| 2026-05-01 11:28 | 31.81575 | 35.42071 | 5918 ft | 241 kts | 323° |
| 2026-05-01 11:28 | 31.83390 | 35.40508 | 5987 ft | 247 kts | 321° |
| 2026-05-01 11:29 | 31.85745 | 35.38483 | 6003 ft | 253 kts | 322° |
| 2026-05-01 11:29 | 31.87165 | 35.37241 | 6028 ft | 256 kts | 321° |
| 2026-05-01 11:29 | 31.90067 | 35.34723 | 6002 ft | 261 kts | 321° |
| 2026-05-01 11:30 | 31.91524 | 35.33445 | 6002 ft | 261 kts | 322° |
| 2026-05-01 11:30 | 31.92988 | 35.32185 | 6013 ft | 261 kts | 321° |
| 2026-05-01 11:30 | 31.94445 | 35.30909 | 6056 ft | 261 kts | 321° |
| 2026-05-01 11:30 | 31.95910 | 35.29631 | 6107 ft | 263 kts | 322° |
| 2026-05-01 11:31 | 31.97386 | 35.28352 | 6160 ft | 265 kts | 322° |
| 2026-05-01 11:31 | 31.98866 | 35.27076 | 6164 ft | 260 kts | 322° |
| 2026-05-01 11:31 | 32.00297 | 35.25808 | 6140 ft | 254 kts | 320° |
| 2026-05-01 11:31 | 32.01703 | 35.24567 | 6137 ft | 252 kts | 321° |
| 2026-05-01 11:32 | 32.03121 | 35.23360 | 6151 ft | 251 kts | 321° |
| 2026-05-01 11:32 | 32.04519 | 35.22133 | 6125 ft | 250 kts | 320° |
| 2026-05-01 11:32 | 32.05914 | 35.20916 | 6112 ft | 249 kts | 321° |
| 2026-05-01 11:32 | 32.07308 | 35.19713 | 6065 ft | 247 kts | 321° |
| 2026-05-01 11:33 | 32.08682 | 35.18508 | 6044 ft | 245 kts | 320° |
| 2026-05-01 11:33 | 32.10050 | 35.17310 | 6012 ft | 244 kts | 321° |
| 2026-05-01 11:33 | 32.11409 | 35.16133 | 6022 ft | 240 kts | 321° |
| 2026-05-01 11:33 | 32.12747 | 35.14962 | 6066 ft | 239 kts | 320° |
| 2026-05-01 11:34 | 32.14084 | 35.13786 | 6042 ft | 240 kts | 321° |
| 2026-05-01 11:34 | 32.15425 | 35.12634 | 6008 ft | 237 kts | 320° |
| 2026-05-01 11:34 | 32.16737 | 35.11469 | 6015 ft | 235 kts | 320° |
| 2026-05-01 11:34 | 32.18052 | 35.10332 | 6024 ft | 234 kts | 320° |
| 2026-05-01 11:35 | 32.19559 | 35.09638 | 6020 ft | 240 kts | 352° |
| 2026-05-01 11:35 | 32.21179 | 35.09295 | 6052 ft | 235 kts | 328° |
| 2026-05-01 11:35 | 32.22429 | 35.08093 | 6065 ft | 232 kts | 312° |
| 2026-05-01 11:35 | 32.23568 | 35.06724 | 6032 ft | 234 kts | 311° |
| 2026-05-01 11:36 | 32.24755 | 35.05386 | 6027 ft | 237 kts | 315° |
| 2026-05-01 11:36 | 32.26008 | 35.04118 | 6006 ft | 238 kts | 317° |
| 2026-05-01 11:36 | 32.27282 | 35.02871 | 6004 ft | 238 kts | 318° |
| 2026-05-01 11:36 | 32.28558 | 35.01634 | 6019 ft | 236 kts | 317° |
| 2026-05-01 11:37 | 32.29831 | 35.00405 | 6013 ft | 235 kts | 317° |
| 2026-05-01 11:37 | 32.31064 | 34.99133 | 6065 ft | 235 kts | 314° |
| 2026-05-01 11:37 | 32.32424 | 34.98083 | 6045 ft | 239 kts | 342° |
| 2026-05-01 11:37 | 32.34080 | 34.98220 | 6071 ft | 247 kts | 22° |
| 2026-05-01 11:38 | 32.35513 | 34.99359 | 6083 ft | 251 kts | 41° |
| 2026-05-01 11:38 | 32.36733 | 35.00852 | 6049 ft | 253 kts | 46° |
| 2026-05-01 11:38 | 32.37925 | 35.02382 | 6039 ft | 252 kts | 44° |
| 2026-05-01 11:38 | 32.39177 | 35.03821 | 6043 ft | 251 kts | 43° |
| 2026-05-01 11:39 | 32.40401 | 35.05306 | 6017 ft | 252 kts | 44° |
| 2026-05-01 11:39 | 32.41631 | 35.06778 | 6007 ft | 251 kts | 44° |
| 2026-05-01 11:39 | 32.42859 | 35.08249 | 6004 ft | 250 kts | 44° |
| 2026-05-01 11:39 | 32.44080 | 35.09718 | 6015 ft | 251 kts | 43° |
| 2026-05-01 11:40 | 32.45309 | 35.11186 | 6016 ft | 251 kts | 44° |
| 2026-05-01 11:40 | 32.46532 | 35.12665 | 6011 ft | 251 kts | 44° |
| 2026-05-01 11:40 | 32.47760 | 35.14133 | 6038 ft | 250 kts | 44° |
| 2026-05-01 11:40 | 32.48978 | 35.15612 | 6016 ft | 250 kts | 44° |
| 2026-05-01 11:41 | 32.50200 | 35.17072 | 6029 ft | 250 kts | 44° |
| 2026-05-01 11:41 | 32.51421 | 35.18545 | 6013 ft | 251 kts | 44° |
| 2026-05-01 11:41 | 32.52644 | 35.20020 | 6011 ft | 251 kts | 44° |
| 2026-05-01 11:41 | 32.53870 | 35.21492 | 6012 ft | 251 kts | 44° |
| 2026-05-01 11:42 | 32.55093 | 35.22976 | 6013 ft | 251 kts | 44° |
| 2026-05-01 11:42 | 32.56316 | 35.24445 | 6044 ft | 250 kts | 43° |
| 2026-05-01 11:42 | 32.57534 | 35.25913 | 6031 ft | 250 kts | 44° |
| 2026-05-01 11:42 | 32.58748 | 35.27382 | 6035 ft | 249 kts | 44° |
| 2026-05-01 11:43 | 32.59961 | 35.28847 | 6026 ft | 249 kts | 44° |
| 2026-05-01 11:43 | 32.61161 | 35.30331 | 6029 ft | 249 kts | 45° |
| 2026-05-01 11:43 | 32.62350 | 35.31830 | 6037 ft | 249 kts | 46° |
| 2026-05-01 11:44 | 32.64717 | 35.34836 | 6082 ft | 250 kts | 45° |
| 2026-05-01 11:44 | 32.65910 | 35.36346 | 6073 ft | 251 kts | 46° |
| 2026-05-01 11:44 | 32.67114 | 35.37852 | 6073 ft | 251 kts | 45° |
| 2026-05-01 11:44 | 32.68327 | 35.39346 | 6082 ft | 251 kts | 44° |
| 2026-05-01 11:45 | 32.69575 | 35.40806 | 6087 ft | 252 kts | 43° |
| 2026-05-01 11:45 | 32.70826 | 35.42234 | 6051 ft | 246 kts | 42° |
| 2026-05-01 11:45 | 32.72050 | 35.43620 | 6046 ft | 241 kts | 41° |
| 2026-05-01 11:45 | 32.73265 | 35.44984 | 5784 ft | 242 kts | 41° |
| 2026-05-01 11:46 | 32.74475 | 35.46345 | 5539 ft | 233 kts | 42° |
| 2026-05-01 11:46 | 32.75712 | 35.47760 | 5038 ft | 234 kts | 43° |
| 2026-05-01 11:46 | 32.76811 | 35.49065 | 4569 ft | 231 kts | 43° |
| 2026-05-01 11:46 | 32.77914 | 35.50403 | 4278 ft | 220 kts | 44° |
| 2026-05-01 11:47 | 32.78933 | 35.51673 | 4137 ft | 205 kts | 44° |
| 2026-05-01 11:47 | 32.79892 | 35.52917 | 4132 ft | 206 kts | 49° |
| 2026-05-01 11:47 | 32.80700 | 35.54352 | 4080 ft | 210 kts | 56° |
| 2026-05-01 11:47 | 32.81424 | 35.55840 | 4040 ft | 207 kts | 58° |
| 2026-05-01 11:48 | 32.82143 | 35.57337 | 4016 ft | 208 kts | 58° |
| 2026-05-01 11:48 | 32.82861 | 35.58837 | 4011 ft | 209 kts | 58° |
| 2026-05-01 11:48 | 32.83577 | 35.60342 | 3995 ft | 209 kts | 58° |
| 2026-05-01 11:48 | 32.84286 | 35.61840 | 3988 ft | 208 kts | 58° |
| 2026-05-01 11:49 | 32.85021 | 35.63296 | 3992 ft | 202 kts | 45° |
| 2026-05-01 11:49 | 32.86209 | 35.63971 | 4011 ft | 188 kts | 357° |
| 2026-05-01 11:49 | 32.87516 | 35.63917 | 3982 ft | 186 kts | 352° |
| 2026-05-01 11:49 | 32.88810 | 35.63802 | 4020 ft | 189 kts | 351° |
| 2026-05-01 11:50 | 32.90142 | 35.63638 | 3953 ft | 194 kts | 347° |
| 2026-05-01 11:50 | 32.91418 | 35.63148 | 3785 ft | 193 kts | 322° |
| 2026-05-01 11:50 | 32.92358 | 35.62055 | 3352 ft | 184 kts | 313° |
| 2026-05-01 11:50 | 32.93204 | 35.60924 | 2786 ft | 179 kts | 312° |
| 2026-05-01 11:51 | 32.94158 | 35.60081 | 2355 ft | 153 kts | 324° |
| 2026-05-01 11:51 | 32.94955 | 35.59413 | 2039 ft | 127 kts | 322° |
| 2026-05-01 11:51 | 32.95661 | 35.58913 | 1710 ft | 113 kts | 323° |
| 2026-05-01 11:51 | 32.96345 | 35.58398 | 1588 ft | 122 kts | 323° |
| 2026-05-01 11:52 | 32.97077 | 35.57900 | 1314 ft | 118 kts | 323° |
| 2026-05-01 11:52 | 32.97777 | 35.57405 | 935 ft | 116 kts | 329° |
| 2026-05-01 11:52 | 32.98378 | 35.57000 | 893 ft | 48 kts | 323° |
| 2026-05-01 11:52 | 32.98563 | 35.56868 | 892 ft | 30 kts | 328° |
| 2026-05-01 11:53 | 32.98664 | 35.56810 | 895 ft | 5 kts | 65° |
| 2026-05-01 11:53 | 32.98570 | 35.56874 | 891 ft | 34 kts | 152° |
| 2026-05-01 11:53 | 32.98324 | 35.57034 | 893 ft | 43 kts | 148° |
| 2026-05-01 11:53 | 32.98089 | 35.57178 | 897 ft | 23 kts | 191° |
| 2026-05-01 11:54 | 32.98053 | 35.57139 | 895 ft | 2 kts | 105° |
| 2026-05-01 11:54 | 32.98058 | 35.57149 | 895 ft | 2 kts | 46° |
| 2026-05-01 11:54 | 32.98060 | 35.57151 | 895 ft | 0 kts | 46° |
| 2026-05-01 11:54 | 32.98064 | 35.57219 | 894 ft | 15 kts | 152° |
| 2026-05-01 11:55 | 32.97898 | 35.57325 | 896 ft | 33 kts | 149° |
| 2026-05-01 11:55 | 32.97805 | 35.57329 | 894 ft | 12 kts | 237° |
| 2026-05-01 11:55 | 32.97801 | 35.57267 | 894 ft | 3 kts | 356° |
| 2026-05-01 11:55 | 32.97803 | 35.57283 | 893 ft | 0 kts | 123° |
| 2026-05-01 11:56 | 32.97803 | 35.57282 | 893 ft | 0 kts | 125° |
| 2026-05-01 11:56 | 32.97804 | 35.57280 | 894 ft | 0 kts | 125° |